Time;durP1;ratioP1;P1;durP2;ratioP2;P2;SDS_P1;SDS_P2;PMS_P1;PMS_P2;Temp;Humidity;BMP_temperature;BMP_pressure;BME280_temperature;BME280_humidity;BME280_pressure;Samples;Min_cycle;Max_cycle;Signal;HPM_P1;HPM_P2
2022/11/16 00:02:36;;;;;;;8.58;6.42;;;12.40;99.90;;;;;;1867331;74;21130;-83
2022/11/16 00:05:27;;;;;;;6.85;5.42;;;12.50;99.90;;;;;;1891127;75;21095;-83
2022/11/16 00:08:19;;;;;;;4.40;3.20;;;12.60;99.90;;;;;;1881681;75;21823;-83
2022/11/16 00:11:13;;;;;;;2.60;1.42;;;12.70;99.90;;;;;;1883385;75;21195;-82
2022/11/16 00:14:06;;;;;;;0.30;0.30;;;13.20;99.90;;;;;;1883670;75;21098;-81
2022/11/16 00:16:58;;;;;;;0.82;0.30;;;13.50;99.90;;;;;;1876849;75;21122;-82
2022/11/16 00:19:49;;;;;;;0.23;0.15;;;13.70;99.90;;;;;;1887844;75;21118;-82
2022/11/16 00:22:41;;;;;;;1.02;0.70;;;13.80;99.90;;;;;;1886733;75;21195;-82
2022/11/16 00:25:34;;;;;;;4.17;2.83;;;13.80;99.90;;;;;;1882954;75;21180;-82
2022/11/16 00:28:25;;;;;;;5.08;3.72;;;13.70;99.90;;;;;;1843099;77;21262;-81
2022/11/16 00:31:17;;;;;;;4.83;3.90;;;13.60;99.90;;;;;;1877687;75;21191;-83
2022/11/16 00:34:09;;;;;;;5.10;3.60;;;13.40;99.90;;;;;;1888884;75;21100;-83
2022/11/16 00:37:01;;;;;;;6.72;3.58;;;13.30;99.90;;;;;;1880671;75;21084;-83
2022/11/16 00:39:53;;;;;;;3.70;3.27;;;13.20;99.90;;;;;;1852148;76;21652;-82
2022/11/16 00:42:44;;;;;;;4.22;3.25;;;13.10;99.90;;;;;;1895115;75;21099;-82
2022/11/16 00:45:38;;;;;;;4.33;3.17;;;13.10;99.90;;;;;;1872770;75;21098;-82
2022/11/16 00:48:29;;;;;;;3.22;2.60;;;13.00;99.90;;;;;;1885337;75;21192;-82
2022/11/16 00:51:20;;;;;;;4.65;2.75;;;13.00;99.90;;;;;;1875693;75;21099;-82
2022/11/16 00:54:12;;;;;;;4.15;2.92;;;13.00;99.90;;;;;;1892722;75;21221;-82
2022/11/16 00:57:03;;;;;;;5.95;2.92;;;13.00;99.90;;;;;;1873030;75;21096;-82
2022/11/16 00:59:55;;;;;;;4.55;2.80;;;13.00;99.90;;;;;;1885230;75;21063;-82
2022/11/16 01:02:47;;;;;;;2.22;1.45;;;13.00;99.90;;;;;;1848026;76;21178;-82
2022/11/16 01:05:38;;;;;;;4.00;2.30;;;12.90;99.90;;;;;;1882804;75;21126;-82
2022/11/16 01:08:30;;;;;;;3.90;2.58;;;12.90;99.90;;;;;;1885541;75;21149;-82
2022/11/16 01:14:33;;;;;;;2.92;1.87;;;12.70;99.90;;;;;;1884802;75;21099;-82
2022/11/16 01:17:25;;;;;;;2.58;1.90;;;12.60;99.90;;;;;;1884118;75;21161;-81
2022/11/16 01:20:18;;;;;;;3.15;1.40;;;12.60;99.90;;;;;;1873319;75;21073;-82
2022/11/16 01:23:11;;;;;;;3.30;2.17;;;12.70;99.90;;;;;;1844523;75;21096;-82
2022/11/16 01:26:02;;;;;;;2.70;2.20;;;12.70;99.90;;;;;;1851837;77;21197;-82
2022/11/16 01:28:55;;;;;;;4.03;2.52;;;12.70;99.90;;;;;;1896215;75;21634;-82
2022/11/16 01:31:46;;;;;;;3.27;2.50;;;12.70;99.90;;;;;;1874221;75;21107;-81
2022/11/16 01:34:38;;;;;;;3.90;2.47;;;12.70;99.90;;;;;;1872029;76;21090;-81
2022/11/16 01:37:31;;;;;;;2.47;2.00;;;12.70;99.90;;;;;;1870419;75;21206;-82
2022/11/16 01:40:22;;;;;;;2.27;1.80;;;12.70;99.90;;;;;;1884987;75;21151;-81
2022/11/16 01:43:19;;;;;;;2.10;1.47;;;12.70;99.90;;;;;;1883940;75;21224;-82
2022/11/16 01:46:11;;;;;;;1.77;1.40;;;12.70;99.90;;;;;;1884761;74;21599;-82
2022/11/16 01:49:05;;;;;;;2.02;1.65;;;12.70;99.90;;;;;;1888038;75;21184;-82
2022/11/16 01:51:59;;;;;;;2.30;1.80;;;12.70;99.90;;;;;;1888840;75;21092;-81
2022/11/16 01:54:54;;;;;;;4.08;2.00;;;12.70;99.90;;;;;;1851876;76;21179;-82
2022/11/16 01:57:49;;;;;;;3.75;2.00;;;12.60;99.90;;;;;;1884545;74;21165;-81
2022/11/16 02:00:40;;;;;;;2.47;1.80;;;12.60;99.90;;;;;;1885921;75;21047;-81
2022/11/16 02:03:34;;;;;;;3.30;1.75;;;12.60;99.90;;;;;;1871647;76;21184;-81
2022/11/16 02:06:44;;;;;;;2.33;1.80;;;12.60;99.90;;;;;;1889064;75;21209;-82
2022/11/16 02:09:57;;;;;;;2.92;2.08;;;12.60;99.90;;;;;;1877265;76;21110;-83
2022/11/16 02:13:16;;;;;;;2.98;1.80;;;12.60;99.90;;;;;;1887745;75;21155;-83
2022/11/16 02:16:14;;;;;;;2.42;1.80;;;12.60;99.90;;;;;;1852807;76;21207;-82
2022/11/16 02:19:17;;;;;;;2.75;1.98;;;12.60;99.90;;;;;;1901108;74;21102;-82
2022/11/16 02:22:12;;;;;;;2.85;1.90;;;12.60;99.90;;;;;;1867464;76;21123;-82
2022/11/16 02:25:09;;;;;;;2.20;1.80;;;12.60;99.90;;;;;;1811849;77;21212;-82
2022/11/16 02:28:19;;;;;;;5.10;2.27;;;12.50;99.90;;;;;;1889249;75;21150;-82
2022/11/16 02:31:13;;;;;;;2.67;1.50;;;12.50;99.90;;;;;;1861934;75;21226;-83
2022/11/16 02:34:08;;;;;;;2.67;1.42;;;12.50;99.90;;;;;;1851197;77;21161;-82
2022/11/16 02:37:01;;;;;;;1.22;1.10;;;12.50;99.90;;;;;;1853629;76;21117;-81
2022/11/16 02:39:56;;;;;;;1.90;1.25;;;12.50;99.90;;;;;;1851210;76;21192;-81
2022/11/16 02:42:51;;;;;;;2.50;1.20;;;12.40;99.90;;;;;;1881789;74;21199;-81
2022/11/16 02:48:28;;;;;;;2.22;1.07;;;12.30;99.90;;;;;;1940994;72;22199;-83
2022/11/16 02:51:21;;;;;;;0.65;0.65;;;12.30;99.90;;;;;;1921439;74;21113;-82
2022/11/16 02:54:16;;;;;;;1.00;0.90;;;12.30;99.90;;;;;;1921261;74;21175;-83
2022/11/16 02:57:38;;;;;;;1.67;1.05;;;12.30;99.90;;;;;;1920624;74;21154;-83
2022/11/16 03:00:36;;;;;;;3.58;1.40;;;12.30;99.90;;;;;;1884307;76;21070;-83
2022/11/16 03:03:30;;;;;;;1.98;1.70;;;12.30;99.90;;;;;;1903222;74;21107;-82
2022/11/16 03:06:24;;;;;;;3.00;1.82;;;12.30;99.90;;;;;;1914441;75;21478;-81
2022/11/16 03:12:00;;;;;;;4.45;2.20;;;12.30;99.90;;;;;;1953720;72;22111;-83
2022/11/16 03:14:55;;;;;;;2.50;1.70;;;12.20;99.90;;;;;;1951064;73;21100;-83
2022/11/16 03:17:49;;;;;;;2.77;2.10;;;12.20;99.90;;;;;;1928996;73;21093;-81
2022/11/16 03:20:43;;;;;;;2.58;1.40;;;12.20;99.90;;;;;;1950909;73;21554;-82
2022/11/16 03:23:35;;;;;;;2.30;1.30;;;12.10;99.90;;;;;;1950979;73;21168;-81
2022/11/16 03:26:29;;;;;;;1.30;1.20;;;12.10;99.90;;;;;;1949907;73;21120;-81
2022/11/16 03:29:25;;;;;;;2.00;1.60;;;12.10;99.90;;;;;;1931179;73;21097;-82
2022/11/16 03:32:20;;;;;;;7.10;1.82;;;12.10;99.90;;;;;;1949158;73;21611;-82
2022/11/16 03:35:16;;;;;;;1.90;1.45;;;12.20;99.90;;;;;;1950772;73;21524;-81
2022/11/16 03:38:11;;;;;;;1.72;1.30;;;12.10;99.90;;;;;;1950744;73;21106;-81
2022/11/16 03:41:07;;;;;;;1.92;1.32;;;12.10;99.90;;;;;;1951009;73;21081;-82
2022/11/16 03:43:59;;;;;;;2.10;1.60;;;12.10;99.90;;;;;;1930966;73;21134;-82
2022/11/16 03:46:51;;;;;;;2.33;1.40;;;12.00;99.90;;;;;;1946373;73;21083;-82
2022/11/16 03:49:46;;;;;;;2.40;1.20;;;12.00;99.90;;;;;;1947410;73;21056;-82
2022/11/16 03:52:40;;;;;;;1.25;1.15;;;11.90;99.90;;;;;;1948733;73;21142;-83
2022/11/16 03:55:31;;;;;;;1.80;1.50;;;11.90;99.90;;;;;;1949576;73;21136;-82
2022/11/16 03:58:23;;;;;;;2.30;1.45;;;11.80;99.90;;;;;;1949146;73;21534;-82
2022/11/16 04:01:15;;;;;;;1.60;1.30;;;11.70;99.90;;;;;;1936532;73;21627;-82
2022/11/16 04:24:10;;;;;;;2.10;1.47;;;11.60;99.90;;;;;;1936923;73;21114;-82
2022/11/16 04:26:04;;;;;;;1.98;1.05;;;11.40;99.90;;;;;;1948666;73;21101;-81
2022/11/16 04:28:55;;;;;;;1.85;1.20;;;11.30;99.90;;;;;;1948642;73;21135;-82
2022/11/16 04:38:07;;;;;;;1.67;1.47;;;11.20;99.90;;;;;;1948529;73;21111;-82
2022/11/16 04:40:59;;;;;;;4.20;2.77;;;11.20;99.90;;;;;;1950152;73;21077;-82
2022/11/16 04:43:50;;;;;;;2.33;2.08;;;11.20;99.90;;;;;;1950264;73;21098;-82
2022/11/16 04:49:51;;;;;;;2.45;1.98;;;11.20;99.90;;;;;;1950079;73;21104;-81
2022/11/16 04:52:44;;;;;;;3.00;2.00;;;11.20;99.90;;;;;;1948412;73;21092;-84
2022/11/16 04:55:36;;;;;;;2.35;2.05;;;11.20;99.90;;;;;;1919542;73;21152;-81
2022/11/16 04:58:27;;;;;;;4.03;2.10;;;11.20;99.90;;;;;;1929545;74;21156;-81
2022/11/16 05:02:06;;;;;;;2.55;1.90;;;11.20;99.90;;;;;;1949119;73;21171;-81
2022/11/16 05:04:13;;;;;;;1.75;1.57;;;11.20;99.90;;;;;;1949246;73;21122;-81
2022/11/16 05:07:09;;;;;;;3.67;1.77;;;11.30;99.90;;;;;;1949415;73;21098;-82
2022/11/16 05:10:02;;;;;;;1.77;1.60;;;11.20;99.90;;;;;;1931801;74;21101;-81
2022/11/16 05:12:55;;;;;;;3.08;1.65;;;11.20;99.90;;;;;;1927313;74;21109;-81
2022/11/16 05:15:47;;;;;;;2.30;1.67;;;11.20;99.90;;;;;;1937035;74;21056;-81
2022/11/16 05:18:40;;;;;;;2.55;2.00;;;11.20;99.90;;;;;;1939710;73;21082;-81
2022/11/16 05:24:35;;;;;;;2.12;1.65;;;11.20;99.90;;;;;;1940754;72;22186;-83
2022/11/16 05:27:30;;;;;;;2.17;1.85;;;11.20;99.90;;;;;;1917423;75;21102;-81
2022/11/16 05:30:22;;;;;;;5.40;3.37;;;11.30;99.90;;;;;;1917120;75;21118;-84
2022/11/16 05:33:17;;;;;;;6.35;4.20;;;11.20;99.90;;;;;;1877512;75;21106;-84
2022/11/16 05:36:13;;;;;;;5.25;3.42;;;11.10;99.90;;;;;;1911991;75;21081;-82
2022/11/16 05:39:06;;;;;;;7.72;3.72;;;11.00;99.90;;;;;;1901794;74;21092;-82
2022/11/16 05:41:59;;;;;;;4.05;2.75;;;10.90;99.90;;;;;;1852265;76;21542;-83
2022/11/16 05:44:51;;;;;;;4.37;2.62;;;10.80;99.90;;;;;;1917990;74;21089;-83
2022/11/16 05:47:44;;;;;;;2.90;2.37;;;10.80;99.90;;;;;;1882490;76;21125;-83
2022/11/16 05:50:36;;;;;;;3.62;2.25;;;10.80;99.90;;;;;;1917074;75;21118;-83
2022/11/16 05:53:30;;;;;;;2.98;2.33;;;10.70;99.90;;;;;;1892673;75;21106;-83
2022/11/16 05:56:23;;;;;;;3.25;2.55;;;10.70;99.90;;;;;;1917634;74;21093;-83
2022/11/16 05:59:17;;;;;;;4.53;2.75;;;10.70;99.90;;;;;;1918799;74;21113;-82
2022/11/16 06:02:09;;;;;;;3.15;2.85;;;10.60;99.90;;;;;;1917147;75;21184;-82
2022/11/16 06:05:01;;;;;;;3.47;2.98;;;10.60;99.90;;;;;;1898632;75;21108;-82
2022/11/16 06:07:54;;;;;;;5.28;3.45;;;10.60;99.90;;;;;;1896244;75;21130;-82
2022/11/16 06:10:46;;;;;;;3.83;3.30;;;10.60;99.90;;;;;;1906482;74;21045;-82
2022/11/16 06:16:19;;;;;;;4.50;2.33;;;10.50;99.90;;;;;;1954627;72;22259;-83
2022/11/16 06:19:10;;;;;;;3.05;2.25;;;10.40;99.90;;;;;;1894603;74;21122;-83
2022/11/16 06:22:02;;;;;;;3.05;2.20;;;10.40;99.90;;;;;;1892286;75;21134;-82
2022/11/16 06:24:54;;;;;;;2.90;1.67;;;10.40;99.90;;;;;;1883888;75;21108;-82
2022/11/16 06:27:46;;;;;;;1.85;1.10;;;10.40;99.90;;;;;;1883889;76;21097;-82
2022/11/16 06:30:40;;;;;;;1.37;1.22;;;10.40;99.90;;;;;;1905861;75;21177;-82
2022/11/16 06:33:32;;;;;;;2.45;2.05;;;10.40;99.90;;;;;;1905989;75;21140;-84
2022/11/16 06:36:26;;;;;;;2.60;2.20;;;10.50;99.90;;;;;;1904786;75;21169;-82
2022/11/16 06:39:18;;;;;;;3.12;2.58;;;10.50;99.90;;;;;;1899784;75;21114;-83
2022/11/16 06:42:10;;;;;;;3.50;3.10;;;10.50;99.90;;;;;;1905884;75;21196;-82
2022/11/16 06:45:04;;;;;;;3.83;2.98;;;10.50;99.90;;;;;;1911782;75;21095;-82
2022/11/16 06:47:57;;;;;;;4.03;3.10;;;10.60;99.90;;;;;;1892886;75;21181;-81
2022/11/16 06:50:51;;;;;;;5.05;3.47;;;10.60;99.90;;;;;;1902693;75;21755;-82
2022/11/16 06:53:44;;;;;;;4.62;3.50;;;10.60;99.90;;;;;;1903219;75;21110;-82
2022/11/16 06:56:37;;;;;;;5.65;3.02;;;10.60;99.90;;;;;;1905565;75;21106;-82
2022/11/16 06:59:31;;;;;;;4.35;3.27;;;10.60;99.90;;;;;;1906428;75;21099;-84
2022/11/16 07:02:24;;;;;;;4.08;3.42;;;10.70;99.90;;;;;;1883960;76;21106;-83
2022/11/16 07:05:16;;;;;;;4.30;3.67;;;10.70;99.90;;;;;;1884488;74;21174;-82
2022/11/16 07:08:08;;;;;;;5.12;3.10;;;10.70;99.90;;;;;;1896373;75;21621;-83
2022/11/16 07:13:48;;;;;;;11.05;4.97;;;10.70;99.90;;;;;;1929674;72;22790;-83
2022/11/16 07:19:30;;;;;;;4.92;4.22;;;10.80;99.90;;;;;;1944786;72;22186;-83
2022/11/16 07:22:23;;;;;;;7.08;4.70;;;10.80;99.90;;;;;;1894319;75;21110;-83
2022/11/16 07:25:16;;;;;;;6.45;4.35;;;10.90;99.90;;;;;;1894043;75;21200;-82
2022/11/16 07:28:09;;;;;;;29.00;7.28;;;10.90;99.90;;;;;;1877202;73;21191;-83
2022/11/16 07:31:04;;;;;;;22.85;6.03;;;10.90;99.90;;;;;;1887915;75;21570;-83
2022/11/16 07:33:55;;;;;;;18.30;6.15;;;10.90;99.90;;;;;;1892475;74;21228;-83
2022/11/16 07:36:57;;;;;;;12.30;6.00;;;10.80;99.90;;;;;;1895671;75;21124;-82
2022/11/16 07:39:49;;;;;;;9.48;4.37;;;10.80;99.90;;;;;;1893135;75;21144;-82
2022/11/16 07:42:42;;;;;;;7.42;3.52;;;10.80;99.90;;;;;;1890679;75;21161;-82
2022/11/16 07:45:52;;;;;;;19.02;4.53;;;10.80;99.90;;;;;;1889950;75;21068;-83
2022/11/16 07:48:45;;;;;;;23.75;5.60;;;10.70;99.90;;;;;;1904270;75;21609;-83
2022/11/16 07:51:47;;;;;;;9.18;3.77;;;10.70;99.90;;;;;;1904424;75;21103;-82
2022/11/16 07:54:40;;;;;;;8.98;3.90;;;10.70;99.90;;;;;;1882276;75;21111;-84
2022/11/16 07:57:31;;;;;;;8.80;3.45;;;10.70;99.90;;;;;;1904564;75;21167;-82
2022/11/16 08:00:24;;;;;;;9.45;3.52;;;10.70;99.90;;;;;;1881466;75;21102;-83
2022/11/16 08:06:02;;;;;;;4.08;2.70;;;10.70;99.90;;;;;;1934604;72;22158;-84
2022/11/16 08:08:54;;;;;;;3.27;2.83;;;10.70;99.90;;;;;;1896140;75;21218;-82
2022/11/16 08:11:48;;;;;;;5.58;3.25;;;10.70;99.90;;;;;;1886339;75;21068;-82
2022/11/16 08:14:40;;;;;;;4.28;3.40;;;10.70;99.90;;;;;;1885391;75;21095;-82
2022/11/16 08:17:31;;;;;;;4.00;3.22;;;10.70;99.90;;;;;;1901566;75;21271;-82
2022/11/16 08:20:24;;;;;;;4.87;3.12;;;10.70;99.90;;;;;;1893745;75;21212;-83
2022/11/16 08:23:17;;;;;;;4.28;2.55;;;10.70;99.90;;;;;;1901638;75;21139;-84
2022/11/16 08:26:13;;;;;;;4.17;2.40;;;10.80;99.90;;;;;;1864132;76;21103;-83
2022/11/16 08:29:03;;;;;;;3.27;2.40;;;10.90;99.90;;;;;;1881961;75;21155;-83
2022/11/16 08:31:56;;;;;;;4.97;2.00;;;11.10;99.90;;;;;;1897134;75;21059;-82
2022/11/16 08:34:48;;;;;;;4.05;2.20;;;11.30;99.90;;;;;;1867842;76;21180;-82
2022/11/16 08:37:39;;;;;;;3.10;2.60;;;11.30;99.90;;;;;;1871579;76;21201;-82
2022/11/16 08:40:32;;;;;;;4.20;2.35;;;11.30;99.90;;;;;;1883113;75;21120;-82
2022/11/16 08:43:23;;;;;;;3.90;2.50;;;11.20;99.90;;;;;;1883137;75;21172;-82
2022/11/16 08:46:16;;;;;;;3.30;2.05;;;11.20;99.90;;;;;;1882625;75;21098;-82
2022/11/16 08:49:09;;;;;;;2.35;1.90;;;11.20;99.90;;;;;;1872595;76;21118;-82
2022/11/16 08:52:00;;;;;;;4.70;2.10;;;11.20;99.90;;;;;;1883783;75;21581;-82
2022/11/16 08:54:52;;;;;;;6.10;2.83;;;11.20;99.90;;;;;;1882773;75;21048;-83
2022/11/16 08:57:44;;;;;;;2.92;1.90;;;11.30;99.90;;;;;;1883048;75;21168;-82
2022/11/16 09:00:35;;;;;;;11.18;2.58;;;11.30;99.90;;;;;;1886830;75;21106;-84
2022/11/16 09:03:27;;;;;;;6.80;1.85;;;11.40;99.90;;;;;;1884864;75;21201;-82
2022/11/16 09:06:19;;;;;;;2.45;1.40;;;11.40;99.90;;;;;;1904828;74;21203;-82
2022/11/16 09:09:10;;;;;;;2.77;1.70;;;11.50;99.90;;;;;;1880681;75;21111;-83
2022/11/16 09:12:02;;;;;;;2.30;1.72;;;11.60;99.90;;;;;;1872338;76;21112;-82
2022/11/16 09:14:53;;;;;;;7.25;1.82;;;11.60;99.90;;;;;;1888777;75;21154;-82
2022/11/16 09:17:45;;;;;;;6.97;3.00;;;11.70;99.90;;;;;;1883317;75;21128;-84
2022/11/16 09:20:36;;;;;;;3.83;2.10;;;11.80;99.90;;;;;;1898186;75;21099;-82
2022/11/16 09:23:30;;;;;;;2.20;1.60;;;11.80;99.90;;;;;;1893407;75;21114;-82
2022/11/16 09:26:22;;;;;;;3.05;1.87;;;11.90;99.90;;;;;;1889415;75;21608;-82
2022/11/16 09:29:15;;;;;;;2.65;2.10;;;12.00;99.90;;;;;;1884434;75;21090;-82
2022/11/16 09:32:07;;;;;;;3.80;2.20;;;12.00;99.90;;;;;;1882513;75;21122;-84
2022/11/16 09:34:59;;;;;;;3.25;2.08;;;12.10;99.90;;;;;;1882360;75;21153;-83
2022/11/16 09:40:35;;;;;;;4.47;2.42;;;12.10;99.90;;;;;;1945629;72;22190;-83
2022/11/16 09:43:33;;;;;;;2.40;2.05;;;12.10;99.90;;;;;;1890989;75;21110;-83
2022/11/16 09:46:29;;;;;;;4.25;2.17;;;12.10;99.90;;;;;;1894779;75;21101;-83
2022/11/16 09:49:24;;;;;;;4.00;2.17;;;12.10;99.90;;;;;;1895671;75;21220;-83
2022/11/16 09:52:20;;;;;;;4.20;2.30;;;12.20;99.90;;;;;;1884198;76;21114;-82
2022/11/16 09:55:22;;;;;;;4.28;2.47;;;12.30;99.90;;;;;;1896901;75;21090;-82
2022/11/16 09:58:17;;;;;;;4.22;2.65;;;12.40;99.90;;;;;;1884892;75;21136;-83
2022/11/16 10:04:01;;;;;;;3.90;2.80;;;12.40;99.90;;;;;;1957246;72;22248;-83
2022/11/16 10:06:57;;;;;;;2.98;2.40;;;12.40;99.90;;;;;;1904477;74;21048;-83
2022/11/16 10:09:49;;;;;;;3.40;3.10;;;12.30;99.90;;;;;;1885705;75;21074;-83
2022/11/16 10:12:44;;;;;;;4.25;2.70;;;12.50;99.90;;;;;;1882952;75;21193;-83
2022/11/16 10:15:47;;;;;;;3.20;2.83;;;12.60;99.90;;;;;;1882834;75;21187;-84
2022/11/16 10:18:49;;;;;;;3.80;2.60;;;12.70;99.90;;;;;;1882978;75;21154;-82
2022/11/16 10:21:48;;;;;;;5.25;3.08;;;12.80;99.90;;;;;;1885032;75;21149;-82
2022/11/16 10:24:53;;;;;;;4.25;2.90;;;12.90;99.90;;;;;;1888060;75;21184;-83
2022/11/16 10:27:54;;;;;;;3.40;2.72;;;13.10;99.90;;;;;;1886065;75;21110;-82
2022/11/16 10:30:48;;;;;;;3.45;2.25;;;13.10;99.90;;;;;;1869579;75;21125;-82
2022/11/16 10:33:42;;;;;;;3.10;2.20;;;13.10;99.90;;;;;;1861787;76;21099;-82
2022/11/16 10:36:35;;;;;;;2.98;2.58;;;13.10;99.90;;;;;;1894133;75;21105;-82
2022/11/16 10:39:28;;;;;;;5.28;2.80;;;13.20;99.90;;;;;;1890656;75;21153;-82
2022/11/16 10:42:22;;;;;;;4.15;3.45;;;13.20;99.90;;;;;;1885580;75;21621;-83
2022/11/16 10:45:19;;;;;;;5.10;4.30;;;13.20;99.90;;;;;;1882844;75;21052;-84
2022/11/16 10:48:18;;;;;;;4.55;3.67;;;13.20;99.90;;;;;;1882733;75;21285;-82
2022/11/16 10:51:10;;;;;;;3.15;2.75;;;13.20;99.90;;;;;;1883032;75;21119;-82
2022/11/16 10:54:03;;;;;;;3.83;2.60;;;13.20;99.90;;;;;;1887218;75;21176;-82
2022/11/16 10:57:00;;;;;;;3.80;2.67;;;13.30;99.90;;;;;;1885237;75;21099;-83
2022/11/16 10:59:55;;;;;;;2.70;2.25;;;13.40;99.90;;;;;;1883152;75;21090;-83
2022/11/16 11:02:50;;;;;;;4.10;3.00;;;13.50;99.90;;;;;;1882619;75;21526;-83
2022/11/16 11:05:52;;;;;;;3.90;3.20;;;13.50;99.90;;;;;;1882682;75;21119;-83
2022/11/16 11:08:43;;;;;;;3.98;3.10;;;13.50;99.90;;;;;;1871125;76;21593;-82
2022/11/16 11:14:45;;;;;;;3.15;1.82;;;13.70;99.90;;;;;;1885078;75;21617;-83
2022/11/16 11:17:40;;;;;;;3.87;2.30;;;13.80;99.90;;;;;;1884767;75;21143;-83
2022/11/16 11:20:32;;;;;;;2.30;1.22;;;13.80;99.90;;;;;;1881952;75;21113;-82
2022/11/16 11:23:26;;;;;;;2.17;1.60;;;13.90;99.90;;;;;;1881263;75;21213;-83
2022/11/16 11:26:34;;;;;;;2.80;1.80;;;13.90;99.90;;;;;;1889963;75;21091;-82
2022/11/16 11:29:30;;;;;;;3.27;2.08;;;13.90;99.90;;;;;;1891093;75;21095;-82
2022/11/16 11:32:24;;;;;;;3.35;2.08;;;14.00;99.90;;;;;;1894056;75;21632;-82
2022/11/16 11:35:25;;;;;;;2.25;1.60;;;14.00;99.90;;;;;;1891447;75;21118;-84
2022/11/16 11:38:18;;;;;;;2.77;1.90;;;14.00;99.90;;;;;;1892783;75;21123;-84
2022/11/16 11:41:15;;;;;;;3.37;1.65;;;14.00;99.90;;;;;;1894449;75;21094;-83
2022/11/16 11:44:11;;;;;;;2.25;1.75;;;14.10;99.90;;;;;;1886299;75;21143;-82
2022/11/16 11:47:12;;;;;;;5.03;2.27;;;14.10;99.90;;;;;;1870453;76;21176;-83
2022/11/16 11:50:13;;;;;;;3.35;2.55;;;14.00;99.90;;;;;;1905020;75;21199;-82
2022/11/16 11:53:07;;;;;;;3.50;2.17;;;14.10;99.90;;;;;;1881410;75;21165;-84
2022/11/16 11:56:00;;;;;;;3.42;1.90;;;14.10;99.90;;;;;;1881283;75;21098;-82
2022/11/16 11:58:53;;;;;;;4.05;1.70;;;14.20;99.90;;;;;;1889426;75;21176;-82
2022/11/16 12:02:08;;;;;;;4.30;2.22;;;14.20;99.90;;;;;;1885614;75;21639;-82
2022/11/16 12:05:22;;;;;;;4.15;2.02;;;14.20;99.90;;;;;;1885127;75;21177;-83
2022/11/16 12:08:24;;;;;;;3.87;1.98;;;14.20;99.90;;;;;;1893441;75;21094;-83
2022/11/16 12:11:19;;;;;;;2.85;1.00;;;14.30;99.90;;;;;;1874643;76;21114;-82
2022/11/16 12:14:25;;;;;;;3.37;1.45;;;14.40;99.90;;;;;;1895484;75;21196;-82
2022/11/16 12:17:36;;;;;;;2.77;0.98;;;14.40;99.90;;;;;;1880450;75;21181;-82
2022/11/16 12:20:36;;;;;;;1.98;0.93;;;14.40;99.90;;;;;;1879164;75;21090;-83
2022/11/16 12:27:03;;;;;;;1.77;1.20;;;14.50;99.90;;;;;;1948530;72;22111;-83
2022/11/16 12:29:58;;;;;;;3.25;1.10;;;14.60;99.90;;;;;;1883730;75;21156;-82
2022/11/16 12:33:00;;;;;;;2.67;1.20;;;14.60;99.90;;;;;;1883513;75;21193;-82
2022/11/16 12:35:57;;;;;;;2.33;1.12;;;14.60;99.90;;;;;;1898819;75;21167;-82
2022/11/16 12:38:59;;;;;;;1.72;1.22;;;14.60;99.90;;;;;;1894896;75;21645;-81
2022/11/16 12:41:58;;;;;;;3.92;1.00;;;14.70;99.90;;;;;;1895154;75;21530;-81
2022/11/16 12:48:24;;;;;;;2.98;1.17;;;14.60;99.90;;;;;;1940442;72;22614;-83
2022/11/16 12:51:22;;;;;;;1.80;1.20;;;14.60;99.90;;;;;;1894246;75;21103;-82
2022/11/16 12:54:31;;;;;;;1.55;1.00;;;14.70;99.90;;;;;;1894120;75;21141;-82
2022/11/16 12:58:06;;;;;;;1.77;0.90;;;14.70;99.90;;;;;;1872282;76;21173;-82
2022/11/16 13:01:03;;;;;;;2.30;0.90;;;14.70;99.90;;;;;;1893452;75;21040;-82
2022/11/16 13:03:58;;;;;;;1.10;0.70;;;14.80;99.90;;;;;;1893844;75;21628;-82
2022/11/16 13:06:52;;;;;;;2.77;0.90;;;14.80;99.90;;;;;;1903235;75;21137;-82
2022/11/16 13:09:47;;;;;;;1.30;0.60;;;14.80;99.90;;;;;;1884335;75;21143;-82
2022/11/16 13:12:38;;;;;;;1.45;0.40;;;14.80;99.90;;;;;;1874946;75;21059;-82
2022/11/16 13:15:35;;;;;;;0.78;0.40;;;14.90;99.90;;;;;;1894314;75;21176;-82
2022/11/16 13:18:30;;;;;;;1.07;0.57;;;14.90;99.90;;;;;;1893442;75;21116;-82
2022/11/16 13:21:33;;;;;;;1.37;0.55;;;14.90;99.90;;;;;;1888481;75;21152;-82
2022/11/16 13:24:33;;;;;;;4.15;0.68;;;14.90;99.90;;;;;;1886488;75;21172;-81
2022/11/16 13:27:31;;;;;;;8.20;1.10;;;14.90;99.90;;;;;;1882962;75;21111;-84
2022/11/16 13:30:25;;;;;;;1.07;0.60;;;14.90;99.90;;;;;;1882834;75;21127;-84
2022/11/16 13:33:26;;;;;;;2.33;0.60;;;15.00;99.90;;;;;;1882765;75;21103;-82
2022/11/16 13:40:03;;;;;;;2.30;1.15;;;15.10;99.90;;;;;;1954784;72;22237;-82
2022/11/16 13:43:16;;;;;;;2.02;0.70;;;15.10;99.90;;;;;;1917067;75;21137;-82
2022/11/16 13:46:09;;;;;;;2.50;0.90;;;15.10;99.90;;;;;;1916846;75;22224;-83
2022/11/16 13:49:02;;;;;;;3.27;0.70;;;15.10;99.90;;;;;;1916320;73;21561;-82
2022/11/16 13:51:57;;;;;;;2.08;0.93;;;15.20;99.90;;;;;;1916769;75;21168;-83
2022/11/16 13:57:34;;;;;;;3.15;0.80;;;15.20;99.90;;;;;;1951704;72;22161;-81
2022/11/16 14:00:29;;;;;;;1.52;0.70;;;15.20;99.90;;;;;;1903070;75;21098;-81
2022/11/16 14:03:29;;;;;;;2.92;0.90;;;15.20;99.90;;;;;;1884068;75;21108;-81
2022/11/16 14:07:03;;;;;;;1.55;0.88;;;15.20;99.90;;;;;;1895441;75;21197;-82
2022/11/16 14:09:55;;;;;;;1.90;0.80;;;15.30;99.90;;;;;;1884823;75;21165;-82
2022/11/16 14:12:54;;;;;;;2.65;0.80;;;15.30;99.90;;;;;;1884066;76;21566;-82
2022/11/16 14:15:55;;;;;;;2.47;1.00;;;15.30;99.90;;;;;;1883958;76;21127;-84
2022/11/16 14:18:48;;;;;;;3.67;1.20;;;15.30;99.90;;;;;;1906177;75;21098;-82
2022/11/16 14:21:42;;;;;;;2.37;1.10;;;15.30;99.90;;;;;;1903389;75;21051;-82
2022/11/16 14:24:37;;;;;;;1.85;1.00;;;15.30;99.90;;;;;;1902476;75;21234;-82
2022/11/16 14:27:31;;;;;;;1.90;0.57;;;15.40;99.90;;;;;;1905941;75;21067;-82
2022/11/16 14:30:27;;;;;;;1.65;0.80;;;15.40;99.90;;;;;;1884063;75;21082;-82
2022/11/16 14:33:26;;;;;;;2.37;0.90;;;15.40;99.90;;;;;;1906309;75;21116;-82
2022/11/16 14:36:18;;;;;;;2.42;0.78;;;15.30;99.90;;;;;;1903547;75;21139;-81
2022/11/16 14:39:31;;;;;;;1.85;0.85;;;15.40;99.90;;;;;;1902819;75;21132;-82
2022/11/16 14:42:28;;;;;;;1.70;0.62;;;15.30;99.90;;;;;;1898332;75;21106;-83
2022/11/16 14:45:24;;;;;;;1.82;0.70;;;15.40;99.90;;;;;;1884373;75;21230;-83
2022/11/16 14:51:09;;;;;;;4.75;1.50;;;15.30;99.90;;;;;;1975717;72;22342;-82
2022/11/16 14:54:04;;;;;;;2.33;1.20;;;15.30;99.90;;;;;;1935581;73;21147;-82
2022/11/16 14:57:04;;;;;;;2.35;0.88;;;15.20;99.90;;;;;;1936989;73;21220;-82
2022/11/16 15:00:14;;;;;;;2.80;1.10;;;15.10;99.90;;;;;;1916783;75;21197;-81
2022/11/16 15:03:08;;;;;;;3.70;0.98;;;15.10;99.90;;;;;;1925575;73;21151;-82
2022/11/16 15:06:02;;;;;;;1.92;0.90;;;15.00;99.90;;;;;;1922850;73;21649;-82
2022/11/16 15:08:57;;;;;;;3.42;1.10;;;15.00;99.90;;;;;;1916498;75;21093;-82
2022/11/16 15:15:06;;;;;;;6.28;1.20;;;14.90;99.90;;;;;;1916860;75;21043;-82
2022/11/16 15:18:09;;;;;;;2.17;1.07;;;14.70;99.90;;;;;;1916329;75;21094;-82
2022/11/16 15:21:00;;;;;;;7.42;1.25;;;14.60;99.90;;;;;;1916766;75;21578;-82
2022/11/16 15:23:52;;;;;;;2.22;1.10;;;14.50;99.90;;;;;;1916833;75;21197;-83
2022/11/16 15:26:45;;;;;;;3.25;1.42;;;14.40;99.90;;;;;;1918799;73;21126;-82
2022/11/16 15:29:37;;;;;;;3.72;1.30;;;14.40;99.90;;;;;;1931409;73;21144;-83
2022/11/16 15:32:30;;;;;;;3.30;1.92;;;14.30;99.90;;;;;;1916535;75;21165;-82
2022/11/16 15:35:24;;;;;;;3.12;1.70;;;14.20;99.90;;;;;;1925508;73;21121;-82
2022/11/16 15:38:18;;;;;;;3.12;1.40;;;14.10;99.90;;;;;;1923042;73;21134;-82
2022/11/16 15:41:11;;;;;;;2.30;1.30;;;14.00;99.90;;;;;;1916363;75;21261;-81
2022/11/16 15:44:04;;;;;;;5.25;1.70;;;14.00;99.90;;;;;;1934120;73;21600;-82
2022/11/16 15:46:58;;;;;;;3.35;1.42;;;13.90;99.90;;;;;;1916359;75;21205;-81
2022/11/16 15:49:51;;;;;;;5.17;2.08;;;13.80;99.90;;;;;;1940966;73;21087;-82
2022/11/16 15:52:45;;;;;;;3.75;1.45;;;13.70;99.90;;;;;;1949048;73;21588;-82
2022/11/16 15:55:39;;;;;;;3.22;1.47;;;13.60;99.90;;;;;;1926323;74;21604;-82
2022/11/16 15:58:34;;;;;;;4.33;1.65;;;13.60;99.90;;;;;;1926483;74;21570;-82
2022/11/16 16:01:28;;;;;;;4.78;1.42;;;13.60;99.90;;;;;;1926133;74;21094;-82
2022/11/16 16:04:20;;;;;;;3.62;1.80;;;13.40;99.90;;;;;;1931647;73;21082;-82
2022/11/16 16:07:12;;;;;;;3.22;1.98;;;13.20;99.90;;;;;;1936153;73;21209;-82
2022/11/16 16:10:20;;;;;;;4.20;1.55;;;13.10;99.90;;;;;;1848558;76;21163;-82
2022/11/16 16:13:27;;;;;;;3.10;2.05;;;13.10;99.90;;;;;;1916334;75;21160;-82
2022/11/16 16:16:26;;;;;;;7.70;4.30;;;13.00;99.90;;;;;;1916411;75;21071;-83
2022/11/16 16:19:35;;;;;;;4.22;1.67;;;13.00;99.90;;;;;;1916252;75;21098;-82
2022/11/16 16:22:29;;;;;;;3.62;1.10;;;12.90;99.90;;;;;;1916149;75;21577;-82
2022/11/16 16:25:29;;;;;;;7.42;2.00;;;12.80;99.90;;;;;;1916261;75;21079;-82
2022/11/16 16:28:20;;;;;;;4.05;1.60;;;12.70;99.90;;;;;;1939192;73;21122;-82
2022/11/16 16:31:14;;;;;;;4.00;1.57;;;12.60;99.90;;;;;;1950239;73;21062;-81